TimeMST,TemperatureF,Dew PointF,Humidity,Sea Level PressureIn,VisibilityMPH,Wind Direction,Wind SpeedMPH,Gust SpeedMPH,PrecipitationIn,Events,Conditions,WindDirDegrees,DateUTC
5:00 AM,15,10,74,30.19,15,NW,6.9,,,,,320,2013-11-06 12:00:00
5:00 AM,14.0,10.4,86,30.19,15.0,NNW,5.8,-,N/A,,Clear,330,2013-11-06 12:00:00
6:00 AM,15.8,10.4,79,30.22,15.0,NW,4.6,-,N/A,,Clear,320,2013-11-06 13:00:00
7:00 AM,17.6,12.2,79,30.22,20.0,NNW,6.9,-,N/A,,Partly Cloudy,330,2013-11-06 14:00:00
8:00 AM,19.4,12.2,74,30.23,30.0,Calm,Calm,-,N/A,,Partly Cloudy,0,2013-11-06 15:00:00
9:00 AM,19.4,12.2,74,30.25,30.0,North,4.6,-,N/A,,Partly Cloudy,350,2013-11-06 16:00:00
10:00 AM,24.8,14.0,64,30.26,30.0,Calm,Calm,-,N/A,,Partly Cloudy,0,2013-11-06 17:00:00
11:00 AM,29,17,49,30.26,28,NNW,3.5,,,,Scattered Clouds,340,2013-11-06 18:00:00
11:00 AM,28.4,17.6,64,30.26,30.0,North,3.5,-,N/A,,Partly Cloudy,350,2013-11-06 18:00:00
12:00 PM,35.6,17.6,48,30.26,30.0,NW,8.1,-,N/A,,Partly Cloudy,320,2013-11-06 19:00:00
1:00 PM,35.6,19.4,52,30.27,30.0,WNW,11.5,-,N/A,,Partly Cloudy,290,2013-11-06 20:00:00
2:00 PM,35.6,17.6,48,30.27,40.0,West,13.8,-,N/A,,Scattered Clouds,280,2013-11-06 21:00:00
3:00 PM,35.6,19.4,52,30.30,40.0,West,13.8,-,N/A,,Scattered Clouds,270,2013-11-06 22:00:00
4:00 PM,32.0,17.6,55,30.31,40.0,WSW,10.4,-,N/A,,Scattered Clouds,250,2013-11-06 23:00:00
5:00 PM,28,14,42,30.34,37,WSW,10.4,,,,Scattered Clouds,240,2013-11-07 00:00:00
5:00 PM,28.4,14.0,55,30.34,40.0,WSW,10.4,-,N/A,,Mostly Cloudy,240,2013-11-07 00:00:00
6:00 PM,24.8,12.2,59,30.36,30.0,West,6.9,-,N/A,,Mostly Cloudy,280,2013-11-07 01:00:00
7:00 PM,28.4,12.2,51,30.35,15.0,NW,4.6,-,N/A,,Scattered Clouds,320,2013-11-07 02:00:00
8:00 PM,19.4,10.4,68,30.37,15.0,NW,6.9,-,N/A,,Scattered Clouds,320,2013-11-07 03:00:00
9:00 PM,17.6,8.6,68,30.39,15.0,WNW,6.9,-,N/A,,Partly Cloudy,300,2013-11-07 04:00:00
10:00 PM,21.2,8.6,58,30.37,15.0,WNW,5.8,-,N/A,,Clear,300,2013-11-07 05:00:00